Time;durP1;ratioP1;P1;durP2;ratioP2;P2;SDS_P1;SDS_P2;PMS_P1;PMS_P2;Temp;Humidity;BMP_temperature;BMP_pressure;BME280_temperature;BME280_humidity;BME280_pressure;Samples;Min_cycle;Max_cycle;Signal;HPM_P1;HPM_P2
2021/07/20 06:16:05;;;;;;;63.60;15.45;;;589.50;2124.80;;;;;;5111950;27;20389;-63
2021/07/20 06:18:31;;;;;;;52.70;13.73;;;589.40;2124.80;;;;;;5110690;28;20359;-72
2021/07/20 06:21:00;;;;;;;66.70;13.98;;;589.60;2099.20;;;;;;5111726;28;20529;-61
2021/07/20 06:23:32;;;;;;;63.88;14.98;;;589.70;2073.60;;;;;;5111274;28;20016;-80
2021/07/20 06:25:58;;;;;;;477.50;42.38;;;614.40;2048.00;;;;;;5111048;28;20089;-62
2021/07/20 06:28:26;;;;;;;310.85;29.70;;;614.60;2048.00;;;;;;5108296;28;20024;-66
2021/07/20 06:30:52;;;;;;;131.80;17.33;;;614.80;2022.40;;;;;;5110738;28;20024;-72
2021/07/20 06:33:20;;;;;;;55.03;13.05;;;614.90;1996.80;;;;;;5110986;28;20020;-66
2021/07/20 06:35:47;;;;;;;52.17;12.27;;;615.00;1971.20;;;;;;5108585;28;20415;-66
2021/07/20 06:38:15;;;;;;;26.00;11.43;;;615.10;1945.60;;;;;;5110991;28;20039;-67
2021/07/20 06:40:44;;;;;;;16.00;10.63;;;615.20;1945.60;;;;;;5110995;28;20024;-63
2021/07/20 06:43:12;;;;;;;43.42;12.00;;;615.30;1945.60;;;;;;5110561;28;20026;-62
2021/07/20 06:45:39;;;;;;;20.42;10.73;;;640.00;1920.00;;;;;;5111254;28;20031;-63
2021/07/20 06:48:06;;;;;;;16.52;10.65;;;640.20;1894.40;;;;;;5109898;28;20469;-65
2021/07/20 06:50:32;;;;;;;20.30;11.52;;;640.70;1843.20;;;;;;5109895;28;20413;-65
2021/07/20 06:52:58;;;;;;;13.90;9.70;;;665.70;1817.60;;;;;;5111191;28;20026;-65
2021/07/20 06:55:25;;;;;;;17.30;10.15;;;666.10;1766.40;;;;;;5109025;28;20051;-64
2021/07/20 06:57:53;;;;;;;17.05;10.40;;;666.30;1740.80;;;;;;5111050;28;20024;-64
2021/07/20 07:00:20;;;;;;;16.05;9.85;;;666.50;1689.60;;;;;;5111326;28;20024;-64
2021/07/20 07:02:51;;;;;;;18.48;10.05;;;691.40;1664.00;;;;;;5110770;28;20028;-65
2021/07/20 07:05:17;;;;;;;15.73;10.15;;;691.80;1638.40;;;;;;5110627;28;20481;-67
2021/07/20 07:07:46;;;;;;;13.48;8.65;;;716.80;1638.40;;;;;;5110642;28;20027;-66
2021/07/20 07:10:14;;;;;;;14.10;8.88;;;716.80;1612.80;;;;;;5109267;28;20131;-65
2021/07/20 07:12:40;;;;;;;16.23;10.32;;;716.80;1612.80;;;;;;5110534;28;20050;-65
2021/07/20 07:15:08;;;;;;;20.30;9.40;;;716.90;1612.80;;;;;;5109626;28;20055;-65
2021/07/20 07:17:35;;;;;;;12.70;9.00;;;717.00;1587.20;;;;;;5110241;28;20020;-67
2021/07/20 07:20:02;;;;;;;12.35;8.63;;;717.00;1561.60;;;;;;5111018;28;20535;-66
2021/07/20 07:22:32;;;;;;;12.98;9.07;;;717.00;1561.60;;;;;;5110552;28;20084;-65
2021/07/20 07:24:58;;;;;;;14.15;8.90;;;717.00;1536.00;;;;;;5110422;28;20020;-64
2021/07/20 07:27:25;;;;;;;10.82;8.68;;;717.20;1536.00;;;;;;5096690;28;20028;-65
2021/07/20 07:29:52;;;;;;;17.20;8.30;;;717.50;1510.40;;;;;;5096802;28;20458;-66
2021/07/20 07:32:19;;;;;;;15.60;8.65;;;742.40;1510.40;;;;;;5095196;28;20020;-65
2021/07/20 07:34:45;;;;;;;11.80;8.23;;;717.70;1484.80;;;;;;5096433;28;20511;-65
2021/07/20 07:37:12;;;;;;;14.15;7.93;;;717.70;1459.20;;;;;;5096691;28;20024;-64
2021/07/20 07:39:39;;;;;;;14.70;8.38;;;742.50;1484.80;;;;;;5096473;28;20594;-64
2021/07/20 07:42:07;;;;;;;12.73;8.13;;;742.70;1484.80;;;;;;5096640;28;20024;-66
2021/07/20 07:44:34;;;;;;;11.35;8.20;;;742.70;1459.20;;;;;;5095225;28;20035;-64
2021/07/20 07:47:00;;;;;;;14.40;8.68;;;743.00;1433.60;;;;;;5096518;28;20085;-64
2021/07/20 07:49:28;;;;;;;10.43;8.20;;;743.00;1433.60;;;;;;5096376;28;20377;-66
2021/07/20 07:51:55;;;;;;;14.10;8.70;;;743.20;1408.00;;;;;;5096321;28;20032;-65
2021/07/20 07:54:21;;;;;;;13.50;8.63;;;768.00;1382.40;;;;;;5096093;28;20024;-64
2021/07/20 07:56:47;;;;;;;16.30;8.80;;;768.20;1382.40;;;;;;5096575;28;20047;-64
2021/07/20 07:59:15;;;;;;;14.65;7.85;;;768.00;1331.20;;;;;;5095855;28;20432;-64
2021/07/20 08:01:45;;;;;;;10.20;7.97;;;768.00;1331.20;;;;;;5095889;28;20427;-65
2021/07/20 08:04:12;;;;;;;12.20;7.90;;;768.00;1331.20;;;;;;5096193;28;20032;-64
2021/07/20 08:06:40;;;;;;;12.07;8.23;;;768.00;1305.60;;;;;;5096292;28;20020;-64
2021/07/20 08:09:06;;;;;;;17.52;9.40;;;768.00;1331.20;;;;;;5095580;28;20031;-64
2021/07/20 08:11:32;;;;;;;12.82;8.75;;;768.20;1305.60;;;;;;5096002;28;20102;-65
2021/07/20 08:14:01;;;;;;;13.70;9.00;;;768.50;1305.60;;;;;;5095829;28;20182;-64
2021/07/20 08:16:35;;;;;;;13.15;9.13;;;768.70;1280.00;;;;;;5095919;28;20028;-65
2021/07/20 08:19:02;;;;;;;13.63;8.98;;;768.80;1280.00;;;;;;5095742;28;20024;-64
2021/07/20 08:21:28;;;;;;;25.73;10.55;;;793.70;1280.00;;;;;;5094385;28;20027;-65
2021/07/20 08:23:56;;;;;;;15.27;9.55;;;793.80;1254.40;;;;;;5094559;28;20501;-63
2021/07/20 08:26:30;;;;;;;13.38;8.07;;;794.00;1228.80;;;;;;5094260;28;20099;-65
2021/07/20 08:29:12;;;;;;;11.70;8.65;;;794.10;1203.20;;;;;;5090330;28;20052;-64
2021/07/20 08:31:44;;;;;;;12.63;8.52;;;794.10;1228.80;;;;;;5092266;28;20048;-64
2021/07/20 08:34:13;;;;;;;17.13;9.68;;;794.00;1228.80;;;;;;5094902;28;20036;-65
2021/07/20 08:36:40;;;;;;;15.20;9.25;;;793.90;1228.80;;;;;;5094471;28;20092;-63
2021/07/20 08:39:10;;;;;;;12.70;9.27;;;793.80;1254.40;;;;;;5093474;28;20055;-64
2021/07/20 08:41:58;;;;;;;14.30;9.80;;;793.60;1254.40;;;;;;5093354;28;20047;-65
2021/07/20 08:44:43;;;;;;;14.80;10.05;;;768.80;1280.00;;;;;;5094656;28;20028;-64
2021/07/20 08:47:23;;;;;;;15.93;10.43;;;768.60;1280.00;;;;;;5094166;28;20111;-65
2021/07/20 08:50:15;;;;;;;18.60;10.05;;;768.30;1305.60;;;;;;5094267;28;20032;-63
2021/07/20 08:53:21;;;;;;;17.55;11.63;;;768.20;1331.20;;;;;;5093247;28;20031;-64
2021/07/20 08:55:50;;;;;;;17.55;9.60;;;768.50;1331.20;;;;;;5093344;28;20115;-63
2021/07/20 08:58:30;;;;;;;14.85;10.77;;;768.70;1331.20;;;;;;5091798;28;20084;-65
2021/07/20 09:01:27;;;;;;;14.70;10.57;;;768.70;1305.60;;;;;;5092345;28;20023;-64
2021/07/20 09:04:03;;;;;;;14.73;10.60;;;768.70;1280.00;;;;;;4995236;28;20033;-64
2021/07/20 09:06:36;;;;;;;17.77;10.07;;;768.70;1280.00;;;;;;5011401;28;20041;-64
2021/07/20 09:09:18;;;;;;;14.70;9.70;;;793.60;1305.60;;;;;;4989269;28;20061;-64
2021/07/20 09:12:04;;;;;;;15.32;10.05;;;794.00;1280.00;;;;;;5009112;28;20026;-66
2021/07/20 09:14:35;;;;;;;14.15;9.57;;;794.20;1254.40;;;;;;5009170;28;20077;-66
2021/07/20 09:17:18;;;;;;;12.82;9.57;;;794.50;1228.80;;;;;;4995084;28;20041;-64
2021/07/20 09:19:54;;;;;;;15.18;9.05;;;819.40;1228.80;;;;;;5008916;28;20021;-64
2021/07/20 09:22:33;;;;;;;14.98;9.63;;;819.50;1203.20;;;;;;5011142;28;20113;-63
2021/07/20 09:25:07;;;;;;;13.77;9.50;;;819.70;1203.20;;;;;;5012177;28;20032;-65
2021/07/20 09:27:37;;;;;;;13.70;9.77;;;819.70;1177.60;;;;;;5012665;28;20121;-65
2021/07/20 09:30:17;;;;;;;14.68;10.02;;;819.70;1177.60;;;;;;5012545;28;20021;-64
2021/07/20 09:33:01;;;;;;;12.52;9.07;;;819.60;1177.60;;;;;;5011988;28;20550;-63
2021/07/20 09:35:39;;;;;;;13.10;9.10;;;819.40;1203.20;;;;;;5009734;28;20029;-64
2021/07/20 09:38:11;;;;;;;15.80;10.02;;;819.60;1203.20;;;;;;5007793;28;20574;-64
2021/07/20 09:40:50;;;;;;;16.10;9.70;;;819.70;1203.20;;;;;;5053384;28;20062;-63
2021/07/20 09:43:35;;;;;;;14.77;9.07;;;819.90;1177.60;;;;;;5094263;28;20016;-63
2021/07/20 09:46:06;;;;;;;13.38;8.82;;;819.90;1152.00;;;;;;5093529;28;20088;-63
2021/07/20 09:48:54;;;;;;;12.55;9.45;;;820.00;1152.00;;;;;;5093143;28;20235;-65
2021/07/20 09:51:57;;;;;;;14.23;9.35;;;820.00;1152.00;;;;;;5090969;28;20098;-64
2021/07/20 09:54:53;;;;;;;16.13;9.50;;;820.00;1126.40;;;;;;5091353;28;20481;-64
2021/07/20 09:57:44;;;;;;;20.90;9.88;;;820.10;1152.00;;;;;;5090943;28;20508;-65
2021/07/20 10:00:14;;;;;;;11.68;9.68;;;819.90;1126.40;;;;;;5092735;28;20035;-63
2021/07/20 10:03:10;;;;;;;15.75;9.73;;;819.90;1126.40;;;;;;5093637;28;20042;-65
2021/07/20 10:05:51;;;;;;;26.88;11.07;;;819.60;1126.40;;;;;;5092811;28;20021;-64
2021/07/20 10:08:23;;;;;;;22.00;10.55;;;819.30;1152.00;;;;;;5088695;28;20036;-65
2021/07/20 10:11:07;;;;;;;21.65;10.70;;;819.20;1152.00;;;;;;5090618;28;20089;-63
2021/07/20 10:13:45;;;;;;;15.75;9.98;;;819.20;1177.60;;;;;;5092746;28;20039;-63
2021/07/20 10:16:34;;;;;;;14.77;10.27;;;819.40;1152.00;;;;;;5093095;28;20036;-64
2021/07/20 10:19:12;;;;;;;14.00;9.55;;;819.60;1126.40;;;;;;5072342;28;20032;-64
2021/07/20 10:21:42;;;;;;;15.65;9.93;;;819.50;1152.00;;;;;;5073766;28;20097;-64
2021/07/20 10:24:15;;;;;;;15.73;10.10;;;819.40;1152.00;;;;;;5088428;28;20063;-64
2021/07/20 10:26:52;;;;;;;16.27;10.48;;;819.50;1152.00;;;;;;5093331;28;20016;-64
2021/07/20 10:29:26;;;;;;;49.25;13.85;;;819.40;1152.00;;;;;;5093199;28;20028;-62
2021/07/20 10:32:28;;;;;;;36.78;12.30;;;819.40;1152.00;;;;;;5093349;28;20031;-63
2021/07/20 10:34:58;;;;;;;14.10;10.38;;;819.40;1177.60;;;;;;5011159;28;20038;-63
2021/07/20 10:37:28;;;;;;;15.07;9.82;;;819.40;1177.60;;;;;;5010954;28;20495;-63
2021/07/20 10:40:02;;;;;;;18.48;11.38;;;819.60;1177.60;;;;;;5011073;28;20120;-64
2021/07/20 10:42:31;;;;;;;14.15;10.18;;;819.70;1152.00;;;;;;5010807;28;20026;-64
2021/07/20 10:45:00;;;;;;;11.73;9.55;;;819.70;1100.80;;;;;;5011248;28;20042;-63
2021/07/20 10:47:36;;;;;;;17.05;10.30;;;819.90;1100.80;;;;;;5010568;28;20038;-63
2021/07/20 10:50:17;;;;;;;43.35;12.98;;;820.00;1100.80;;;;;;5010900;28;20037;-63
2021/07/20 10:53:04;;;;;;;20.27;11.20;;;845.00;1126.40;;;;;;5010024;28;20072;-63
2021/07/20 10:55:55;;;;;;;14.50;10.75;;;845.10;1100.80;;;;;;5007677;28;20034;-64
2021/07/20 10:58:37;;;;;;;12.68;10.07;;;845.20;1075.20;;;;;;5009049;28;20049;-64
2021/07/20 11:01:14;;;;;;;22.92;11.35;;;845.30;1075.20;;;;;;5010641;28;20040;-64
2021/07/20 11:04:05;;;;;;;18.40;11.15;;;845.60;1049.60;;;;;;5013585;28;20038;-64
2021/07/20 11:06:33;;;;;;;17.42;11.07;;;845.50;1049.60;;;;;;5008438;28;20022;-63
2021/07/20 11:09:03;;;;;;;19.50;11.55;;;845.50;1024.00;;;;;;5013576;28;20022;-63
2021/07/20 11:11:34;;;;;;;15.73;10.63;;;845.60;1024.00;;;;;;5089868;28;20389;-64
2021/07/20 11:14:02;;;;;;;22.38;10.63;;;870.40;1024.00;;;;;;5095587;28;20109;-63
2021/07/20 11:16:30;;;;;;;51.03;11.98;;;870.50;1024.00;;;;;;5092779;28;20373;-64
2021/07/20 11:18:59;;;;;;;19.00;11.07;;;870.40;1049.60;;;;;;5095572;28;20020;-63
2021/07/20 11:21:28;;;;;;;18.48;10.13;;;845.70;1049.60;;;;;;5095836;28;20024;-65
2021/07/20 11:23:56;;;;;;;13.93;10.30;;;845.50;1075.20;;;;;;5096653;28;20509;-63
2021/07/20 11:26:24;;;;;;;16.83;10.43;;;845.10;1100.80;;;;;;5096755;28;20107;-64
2021/07/20 11:28:51;;;;;;;14.73;9.85;;;845.10;1100.80;;;;;;5096912;28;20084;-64
2021/07/20 11:31:41;;;;;;;14.20;10.60;;;845.30;1100.80;;;;;;5096507;28;20382;-63
2021/07/20 11:34:18;;;;;;;15.00;10.48;;;845.50;1075.20;;;;;;5096702;28;20500;-64
2021/07/20 11:36:45;;;;;;;15.52;10.27;;;845.50;1049.60;;;;;;5094874;28;20051;-64
2021/07/20 11:39:16;;;;;;;15.45;10.55;;;845.50;1049.60;;;;;;5095972;28;20048;-64
2021/07/20 11:41:53;;;;;;;17.13;10.15;;;845.50;1049.60;;;;;;5096528;28;20028;-64
2021/07/20 11:44:32;;;;;;;15.10;9.18;;;845.40;1075.20;;;;;;5096571;28;20028;-65
2021/07/20 11:47:07;;;;;;;13.43;9.95;;;845.60;1049.60;;;;;;5096647;28;20013;-64
2021/07/20 11:50:00;;;;;;;16.55;10.57;;;845.50;1024.00;;;;;;5094517;28;20028;-64
2021/07/20 11:52:35;;;;;;;19.52;9.52;;;845.70;1049.60;;;;;;5095013;28;20036;-69
2021/07/20 11:55:19;;;;;;;17.17;9.80;;;870.40;1049.60;;;;;;5096006;28;20062;-70
2021/07/20 11:58:15;;;;;;;13.93;10.32;;;870.60;1024.00;;;;;;5096197;28;20020;-75
2021/07/20 12:01:01;;;;;;;14.07;10.60;;;870.60;1024.00;;;;;;5096251;28;20059;-70
2021/07/20 12:03:40;;;;;;;14.98;9.68;;;870.60;1024.00;;;;;;5096207;28;20020;-70
2021/07/20 12:06:30;;;;;;;15.52;10.27;;;870.60;998.40;;;;;;5096120;28;20066;-69
2021/07/20 12:09:12;;;;;;;12.85;9.90;;;870.70;998.40;;;;;;5096034;28;20035;-69
2021/07/20 12:11:41;;;;;;;11.82;9.65;;;870.80;998.40;;;;;;5095823;28;20347;-71
2021/07/20 12:14:09;;;;;;;18.10;9.48;;;870.60;1024.00;;;;;;5095573;28;20118;-73
2021/07/20 12:16:45;;;;;;;15.65;10.13;;;870.40;1024.00;;;;;;5095957;28;20032;-75
2021/07/20 12:19:13;;;;;;;14.70;9.20;;;845.40;1049.60;;;;;;5095802;28;20028;-74
2021/07/20 12:21:42;;;;;;;17.05;10.23;;;845.30;1075.20;;;;;;5095807;28;20359;-74
2021/07/20 12:24:10;;;;;;;17.70;9.40;;;845.30;1075.20;;;;;;5095542;28;20024;-69
2021/07/20 12:26:38;;;;;;;15.52;9.35;;;845.30;1049.60;;;;;;5094278;28;20161;-74
2021/07/20 12:29:07;;;;;;;13.35;8.65;;;845.50;1049.60;;;;;;5095310;28;20016;-76
2021/07/20 12:31:34;;;;;;;13.25;8.52;;;845.50;1024.00;;;;;;5095552;28;20156;-73
2021/07/20 12:34:01;;;;;;;15.88;9.73;;;870.40;998.40;;;;;;5095454;28;20024;-75
2021/07/20 12:36:27;;;;;;;13.23;8.02;;;870.40;1024.00;;;;;;5095446;28;20028;-72
2021/07/20 12:39:17;;;;;;;15.00;8.27;;;845.50;1049.60;;;;;;5094203;28;20031;-70
2021/07/20 12:41:52;;;;;;;111.25;14.90;;;845.50;1049.60;;;;;;5095319;28;20035;-64
2021/07/20 12:44:19;;;;;;;25.10;9.32;;;845.40;1049.60;;;;;;5095355;28;20024;-67
2021/07/20 12:46:45;;;;;;;21.35;8.43;;;845.20;1049.60;;;;;;5093981;28;20119;-65
2021/07/20 12:49:13;;;;;;;12.77;8.43;;;845.20;1049.60;;;;;;5094994;28;20020;-66
2021/07/20 12:51:53;;;;;;;13.48;8.52;;;845.10;1049.60;;;;;;5095755;28;20099;-65
2021/07/20 12:54:40;;;;;;;14.82;8.10;;;845.00;1100.80;;;;;;5093706;28;20024;-65
2021/07/20 12:57:08;;;;;;;15.73;8.60;;;844.80;1100.80;;;;;;5094853;28;20028;-65
2021/07/20 12:59:44;;;;;;;18.60;8.60;;;820.00;1075.20;;;;;;5095027;28;20046;-66
2021/07/20 13:05:33;;;;;;;15.38;8.05;;;845.00;1100.80;;;;;;5095422;28;20487;-67
2021/07/20 13:08:00;;;;;;;14.10;8.10;;;845.00;1075.20;;;;;;5094838;28;20077;-65
2021/07/20 13:10:31;;;;;;;11.57;8.57;;;845.00;1100.80;;;;;;5094805;28;20020;-67
2021/07/20 13:12:59;;;;;;;13.65;7.70;;;844.80;1100.80;;;;;;5094785;28;20016;-66
2021/07/20 13:15:25;;;;;;;12.35;8.30;;;844.80;1100.80;;;;;;5094552;28;20127;-66
2021/07/20 13:17:54;;;;;;;16.05;8.23;;;844.90;1075.20;;;;;;5094726;28;20493;-67
2021/07/20 13:20:21;;;;;;;13.75;7.95;;;844.80;1075.20;;;;;;5094626;28;20035;-66
2021/07/20 13:22:47;;;;;;;15.82;8.70;;;844.90;1075.20;;;;;;5094564;28;20027;-66
2021/07/20 13:25:15;;;;;;;13.27;8.32;;;844.90;1100.80;;;;;;5094119;28;20032;-65
2021/07/20 13:27:43;;;;;;;11.77;8.32;;;844.90;1100.80;;;;;;5094496;28;20028;-65
2021/07/20 13:30:17;;;;;;;19.45;8.77;;;845.00;1075.20;;;;;;5094341;28;20031;-65
2021/07/20 13:32:44;;;;;;;12.23;8.02;;;845.00;1075.20;;;;;;5094198;28;20477;-65
2021/07/20 13:35:10;;;;;;;15.52;8.40;;;845.10;1075.20;;;;;;5094085;28;20039;-64
2021/07/20 13:37:37;;;;;;;14.10;8.13;;;845.30;1075.20;;;;;;5094040;28;20031;-65
2021/07/20 13:40:07;;;;;;;13.50;8.63;;;845.20;1049.60;;;;;;5094091;28;20028;-64
2021/07/20 13:42:34;;;;;;;18.17;8.27;;;845.30;1024.00;;;;;;5094185;28;20024;-64
2021/07/20 13:45:01;;;;;;;13.60;8.98;;;845.50;1075.20;;;;;;5094272;28;20157;-64
2021/07/20 13:47:34;;;;;;;11.77;8.23;;;845.30;1075.20;;;;;;5094336;28;20027;-63
2021/07/20 13:50:02;;;;;;;16.13;9.45;;;845.00;1075.20;;;;;;5094290;28;20066;-64
2021/07/20 13:52:31;;;;;;;13.55;9.27;;;845.00;1075.20;;;;;;5094054;28;20028;-65
2021/07/20 13:55:06;;;;;;;14.98;9.15;;;845.00;1075.20;;;;;;5093851;28;20028;-63
2021/07/20 13:57:32;;;;;;;15.93;8.90;;;844.80;1049.60;;;;;;5093877;28;20099;-64
2021/07/20 14:00:00;;;;;;;14.05;8.70;;;844.80;1049.60;;;;;;5094025;28;20109;-64
2021/07/20 14:02:26;;;;;;;13.88;9.07;;;844.80;1075.20;;;;;;5093933;28;20016;-64
2021/07/20 14:04:55;;;;;;;13.85;8.95;;;844.80;1075.20;;;;;;5093802;28;20027;-64
2021/07/20 14:07:22;;;;;;;14.13;8.52;;;844.80;1100.80;;;;;;5093673;28;20020;-64
2021/07/20 14:09:51;;;;;;;12.60;8.77;;;844.80;1075.20;;;;;;5093990;28;20034;-64
2021/07/20 14:12:18;;;;;;;14.60;9.05;;;844.80;1049.60;;;;;;5093799;28;20020;-64
2021/07/20 14:14:46;;;;;;;14.77;9.68;;;820.00;1024.00;;;;;;5093345;28;20044;-64
2021/07/20 14:17:13;;;;;;;17.35;9.25;;;820.00;1049.60;;;;;;5093654;28;20373;-64
2021/07/20 14:19:40;;;;;;;14.00;9.43;;;820.00;1049.60;;;;;;5093589;28;20050;-64
2021/07/20 14:22:06;;;;;;;14.60;9.73;;;819.90;1049.60;;;;;;5093636;28;20024;-64
2021/07/20 14:24:34;;;;;;;14.50;9.52;;;819.90;1075.20;;;;;;5093412;28;20111;-64
2021/07/20 14:26:59;;;;;;;15.57;9.77;;;819.90;1075.20;;;;;;5093642;28;20423;-63
2021/07/20 14:29:32;;;;;;;14.90;8.98;;;819.90;1100.80;;;;;;5093943;28;20035;-65
2021/07/20 14:32:08;;;;;;;15.18;9.30;;;819.90;1049.60;;;;;;5093851;28;20024;-65
2021/07/20 14:34:45;;;;;;;14.55;9.15;;;819.80;1049.60;;;;;;5093623;28;20488;-65
2021/07/20 14:37:54;;;;;;;19.73;9.68;;;819.70;1049.60;;;;;;5096677;28;20380;-65
2021/07/20 14:40:22;;;;;;;15.50;9.77;;;819.70;1049.60;;;;;;5097952;28;20031;-65
2021/07/20 14:42:53;;;;;;;16.17;10.05;;;819.60;1075.20;;;;;;5097579;28;20020;-65
2021/07/20 14:45:21;;;;;;;19.80;9.20;;;819.50;1075.20;;;;;;5097782;28;20112;-65
2021/07/20 14:47:47;;;;;;;35.13;11.38;;;819.50;1075.20;;;;;;5097472;28;20548;-64
2021/07/20 14:50:20;;;;;;;33.60;10.55;;;819.60;1100.80;;;;;;5097783;28;20099;-64
2021/07/20 14:52:48;;;;;;;17.25;9.98;;;819.50;1100.80;;;;;;5097525;28;20560;-64
2021/07/20 14:55:32;;;;;;;17.55;9.98;;;819.40;1075.20;;;;;;5097439;28;20067;-64
2021/07/20 14:58:09;;;;;;;24.58;11.05;;;819.30;1075.20;;;;;;5097630;28;20095;-64
2021/07/20 15:00:54;;;;;;;19.63;9.45;;;819.30;1126.40;;;;;;5097253;28;20038;-64
2021/07/20 15:03:42;;;;;;;17.33;11.00;;;819.20;1100.80;;;;;;5097210;28;20020;-64
2021/07/20 15:06:22;;;;;;;15.02;10.07;;;819.20;1100.80;;;;;;5097248;28;20028;-64
2021/07/20 15:08:53;;;;;;;14.65;10.05;;;794.40;1075.20;;;;;;5097217;28;20024;-64
2021/07/20 15:11:55;;;;;;;15.80;10.07;;;794.30;1100.80;;;;;;5097356;28;20020;-64
2021/07/20 15:14:25;;;;;;;20.08;11.55;;;794.30;1100.80;;;;;;5034598;28;20156;-63
2021/07/20 15:16:58;;;;;;;13.65;10.63;;;794.20;1126.40;;;;;;5034637;28;20030;-64
2021/07/20 15:19:29;;;;;;;18.88;11.30;;;794.10;1100.80;;;;;;5035286;28;20022;-64
2021/07/20 15:21:56;;;;;;;20.42;11.02;;;794.00;1126.40;;;;;;5034571;28;20136;-63
2021/07/20 15:24:27;;;;;;;18.13;12.43;;;793.90;1126.40;;;;;;5034595;28;20032;-63
2021/07/20 15:26:57;;;;;;;17.27;11.18;;;793.80;1126.40;;;;;;5034509;28;20116;-63
2021/07/20 15:29:27;;;;;;;15.82;11.20;;;793.80;1100.80;;;;;;5034948;28;20245;-63
2021/07/20 15:31:55;;;;;;;13.25;10.63;;;793.70;1126.40;;;;;;5034375;28;20155;-64
2021/07/20 15:34:27;;;;;;;16.90;11.40;;;793.60;1126.40;;;;;;5034348;28;20101;-64
2021/07/20 15:37:15;;;;;;;18.48;11.30;;;793.60;1126.40;;;;;;5034272;28;20038;-64
2021/07/20 15:40:01;;;;;;;15.18;10.85;;;793.60;1100.80;;;;;;5034077;28;20444;-64
2021/07/20 15:42:26;;;;;;;18.90;11.65;;;793.60;1126.40;;;;;;5017427;28;20426;-63
2021/07/20 15:44:56;;;;;;;14.65;10.35;;;768.90;1126.40;;;;;;5034292;28;20037;-64
2021/07/20 15:47:40;;;;;;;16.98;10.27;;;768.80;1100.80;;;;;;5041232;28;20033;-64
2021/07/20 15:50:08;;;;;;;;;;;768.70;1126.40;;;;;;5096667;28;20031;-63
2021/07/20 15:52:34;;;;;;;33.53;11.75;;;768.70;1126.40;;;;;;5096199;28;19904;-64
2021/07/20 15:55:00;;;;;;;31.20;11.85;;;768.60;1126.40;;;;;;5096486;28;20042;-63
2021/07/20 15:57:26;;;;;;;20.83;10.88;;;768.50;1126.40;;;;;;5096449;28;20023;-64
2021/07/20 15:59:52;;;;;;;16.88;9.50;;;768.40;1100.80;;;;;;5096431;28;20050;-64
2021/07/20 16:02:18;;;;;;;15.93;10.02;;;768.40;1100.80;;;;;;5096442;28;20104;-64
2021/07/20 16:04:44;;;;;;;24.55;10.40;;;768.20;1100.80;;;;;;5094750;28;20024;-65
2021/07/20 16:07:12;;;;;;;27.38;11.50;;;768.10;1126.40;;;;;;5095197;28;20100;-65
2021/07/20 16:09:40;;;;;;;19.88;9.93;;;768.10;1126.40;;;;;;5091700;28;20087;-65
2021/07/20 16:12:06;;;;;;;14.82;9.82;;;768.00;1126.40;;;;;;5094560;28;20412;-64
2021/07/20 16:14:31;;;;;;;16.00;9.32;;;768.00;1126.40;;;;;;5094303;28;20052;-65
2021/07/20 16:16:58;;;;;;;20.23;9.27;;;743.20;1152.00;;;;;;5091633;28;20016;-64
2021/07/20 16:19:28;;;;;;;13.93;9.48;;;743.20;1126.40;;;;;;5092816;28;20020;-64
2021/07/20 16:21:53;;;;;;;11.02;8.88;;;743.10;1152.00;;;;;;5094231;28;20111;-64
2021/07/20 16:24:20;;;;;;;15.45;10.02;;;743.00;1152.00;;;;;;5094328;28;20095;-64
2021/07/20 16:26:46;;;;;;;11.65;9.18;;;743.00;1152.00;;;;;;5094317;28;20024;-64
2021/07/20 16:29:12;;;;;;;11.57;8.82;;;742.90;1152.00;;;;;;5094247;28;20024;-64
2021/07/20 16:31:39;;;;;;;11.95;8.73;;;742.90;1152.00;;;;;;5094545;28;20030;-64
2021/07/20 16:34:06;;;;;;;15.75;9.73;;;742.80;1152.00;;;;;;5093965;28;20016;-64
2021/07/20 16:36:33;;;;;;;19.77;10.10;;;742.70;1177.60;;;;;;5094328;28;20035;-63
2021/07/20 16:38:59;;;;;;;15.52;9.75;;;742.70;1177.60;;;;;;5091518;28;20016;-64
2021/07/20 16:41:26;;;;;;;15.85;9.80;;;742.60;1177.60;;;;;;5094301;28;20027;-66
2021/07/20 16:43:54;;;;;;;11.55;8.82;;;742.60;1203.20;;;;;;5093819;28;20047;-64
2021/07/20 16:46:23;;;;;;;14.55;9.30;;;742.50;1177.60;;;;;;5091165;28;20028;-65
2021/07/20 16:48:51;;;;;;;12.30;9.32;;;742.40;1177.60;;;;;;5093008;28;20028;-65
2021/07/20 16:51:19;;;;;;;11.80;8.80;;;742.40;1177.60;;;;;;5094727;28;20021;-65
2021/07/20 16:53:49;;;;;;;15.45;9.95;;;717.60;1177.60;;;;;;5094519;28;20168;-65
2021/07/20 16:56:25;;;;;;;10.57;8.93;;;717.50;1177.60;;;;;;5093495;28;20112;-64
2021/07/20 16:58:53;;;;;;;15.35;9.40;;;717.50;1177.60;;;;;;5092648;28;20088;-64
2021/07/20 17:01:21;;;;;;;13.00;8.82;;;717.50;1177.60;;;;;;5090761;28;20023;-64
2021/07/20 17:03:48;;;;;;;11.52;9.73;;;717.30;1177.60;;;;;;5092573;28;20381;-64
2021/07/20 17:06:15;;;;;;;12.40;8.80;;;717.30;1203.20;;;;;;5093319;28;20031;-64
2021/07/20 17:08:45;;;;;;;14.75;10.00;;;717.20;1177.60;;;;;;5093301;28;20389;-65
2021/07/20 17:11:12;;;;;;;16.88;9.02;;;717.20;1177.60;;;;;;5090992;28;20028;-65
2021/07/20 17:13:39;;;;;;;10.73;8.82;;;717.10;1203.20;;;;;;5092454;28;20052;-65
2021/07/20 17:16:05;;;;;;;12.52;9.07;;;717.00;1203.20;;;;;;5092142;28;20493;-68
2021/07/20 17:18:31;;;;;;;13.60;8.95;;;716.90;1203.20;;;;;;5092630;28;20024;-65
2021/07/20 17:20:59;;;;;;;14.65;8.85;;;716.80;1203.20;;;;;;5092452;28;20020;-63
2021/07/20 17:23:26;;;;;;;30.10;9.93;;;692.10;1203.20;;;;;;5092537;28;20032;-66
2021/07/20 17:26:09;;;;;;;24.00;9.82;;;692.10;1228.80;;;;;;5092531;28;20031;-69
2021/07/20 17:28:52;;;;;;;42.60;10.48;;;692.00;1228.80;;;;;;5092411;28;20028;-63
2021/07/20 17:31:27;;;;;;;20.47;9.93;;;692.00;1228.80;;;;;;5093596;28;20120;-63
2021/07/20 17:33:59;;;;;;;17.27;9.23;;;691.90;1228.80;;;;;;5093990;28;20267;-64
2021/07/20 17:36:27;;;;;;;15.52;9.23;;;691.80;1228.80;;;;;;5094057;28;20047;-63
2021/07/20 17:39:15;;;;;;;16.05;9.65;;;691.80;1228.80;;;;;;5092119;28;20127;-63
2021/07/20 17:44:29;;;;;;;13.82;9.15;;;691.60;1254.40;;;;;;5094086;28;20110;-63
2021/07/20 17:46:55;;;;;;;13.27;9.50;;;691.40;1280.00;;;;;;5093575;28;20118;-63
2021/07/20 17:49:21;;;;;;;14.07;9.38;;;691.40;1280.00;;;;;;5093708;28;20103;-63
2021/07/20 17:51:47;;;;;;;23.42;11.38;;;691.30;1305.60;;;;;;5093552;28;20073;-63
2021/07/20 17:54:24;;;;;;;14.15;10.05;;;691.30;1305.60;;;;;;5093473;28;20032;-63
2021/07/20 17:56:56;;;;;;;16.83;10.32;;;691.20;1331.20;;;;;;5092409;28;20039;-63
2021/07/20 17:59:22;;;;;;;11.50;9.20;;;691.20;1331.20;;;;;;5093702;28;20032;-62
2021/07/20 18:01:49;;;;;;;16.83;10.13;;;666.40;1356.80;;;;;;5092754;28;20492;-63
2021/07/20 18:04:19;;;;;;;21.02;10.20;;;666.40;1356.80;;;;;;5093641;28;20032;-63
2021/07/20 18:06:45;;;;;;;16.23;9.68;;;666.30;1356.80;;;;;;5093552;28;20024;-63
2021/07/20 18:09:11;;;;;;;13.52;10.52;;;666.20;1356.80;;;;;;5093279;28;20024;-63
2021/07/20 18:11:37;;;;;;;12.75;9.60;;;666.10;1382.40;;;;;;5091967;28;20085;-62
2021/07/20 18:14:03;;;;;;;12.18;10.35;;;666.00;1382.40;;;;;;5091566;28;20497;-63
2021/07/20 18:16:29;;;;;;;12.75;9.30;;;666.00;1382.40;;;;;;5091765;28;20027;-63
2021/07/20 18:18:56;;;;;;;12.88;9.82;;;665.90;1382.40;;;;;;5092021;28;20103;-63
2021/07/20 18:21:22;;;;;;;18.25;10.88;;;665.80;1382.40;;;;;;5091807;28;20492;-63
2021/07/20 18:23:51;;;;;;;15.30;10.23;;;665.70;1382.40;;;;;;5091953;28;20499;-62
2021/07/20 18:26:17;;;;;;;13.90;10.43;;;665.60;1382.40;;;;;;5091293;28;20035;-62
2021/07/20 18:28:43;;;;;;;14.13;10.45;;;665.60;1408.00;;;;;;5091500;28;20024;-63
2021/07/20 18:31:09;;;;;;;12.65;9.77;;;640.90;1382.40;;;;;;5091488;28;20027;-62
2021/07/20 18:33:50;;;;;;;13.07;9.48;;;640.80;1408.00;;;;;;5091973;28;20469;-63
2021/07/20 18:36:16;;;;;;;13.98;10.00;;;640.70;1408.00;;;;;;5089420;28;20435;-62
2021/07/20 18:38:42;;;;;;;11.93;9.70;;;640.60;1408.00;;;;;;5092511;28;20028;-63
2021/07/20 18:41:08;;;;;;;12.02;9.40;;;640.60;1433.60;;;;;;5092908;28;20386;-65
2021/07/20 18:43:34;;;;;;;20.13;10.57;;;640.50;1433.60;;;;;;5093163;28;20029;-65
2021/07/20 18:45:59;;;;;;;16.30;9.60;;;640.50;1433.60;;;;;;5093034;28;20035;-66
2021/07/20 18:48:25;;;;;;;13.02;9.10;;;640.30;1433.60;;;;;;5093070;28;20028;-63
2021/07/20 18:50:52;;;;;;;12.00;9.40;;;640.30;1433.60;;;;;;5093146;28;20485;-62